createdAt,value
2023-03-05T00:01:30.574Z,11.85
2023-03-05T00:04:02.926Z,10.77
2023-03-05T00:06:32.987Z,11.88
2023-03-05T00:09:00.304Z,12.18
2023-03-05T00:11:30.530Z,12.38
2023-03-05T00:14:01.997Z,10.68
2023-03-05T00:16:29.252Z,10.30
2023-03-05T00:18:58.298Z,12.07
2023-03-05T00:21:30.151Z,10.98
2023-03-05T00:23:58.689Z,11.10
2023-03-05T00:26:27.314Z,11.93
2023-03-05T00:28:57.459Z,12.10
2023-03-05T00:31:31.960Z,10.10
2023-03-05T00:34:03.214Z,10.50
2023-03-05T00:36:32.723Z,9.10
2023-03-05T00:39:00.030Z,11.18
2023-03-05T00:45:16.148Z,9.63
2023-03-05T00:50:11.975Z,9.70
2023-03-05T00:52:41.078Z,12.95
2023-03-05T00:55:08.090Z,14.13
2023-03-05T00:57:34.640Z,13.70
2023-03-05T01:00:01.204Z,10.65
2023-03-05T01:02:27.782Z,15.57
2023-03-05T01:04:56.586Z,12.38
2023-03-05T01:07:23.172Z,11.48
2023-03-05T01:09:49.936Z,12.23
2023-03-05T01:12:16.511Z,10.50
2023-03-05T01:14:45.536Z,10.88
2023-03-05T01:17:12.236Z,8.38
2023-03-05T01:19:41.030Z,12.68
2023-03-05T01:22:15.446Z,12.05
2023-03-05T01:24:44.460Z,10.35
2023-03-05T01:27:11.059Z,11.00
2023-03-05T01:29:37.787Z,10.20
2023-03-05T01:32:04.936Z,11.73
2023-03-05T01:34:31.550Z,10.60
2023-03-05T01:36:58.187Z,9.48
2023-03-05T01:39:27.026Z,11.45
2023-03-05T01:41:53.604Z,14.32
2023-03-05T01:44:27.803Z,10.50
2023-03-05T01:46:54.758Z,14.43
2023-03-05T01:49:40.259Z,12.20
2023-03-05T01:52:18.193Z,14.13
2023-03-05T01:55:08.001Z,11.10
2023-03-05T01:57:52.592Z,9.57
2023-03-05T02:00:27.757Z,14.55
2023-03-05T02:03:01.636Z,10.88
2023-03-05T02:05:34.311Z,12.23
2023-03-05T02:08:08.290Z,11.70
2023-03-05T02:10:39.341Z,10.23
2023-03-05T02:13:09.864Z,15.38
2023-03-05T02:15:40.500Z,11.02
2023-03-05T02:18:13.386Z,12.95
2023-03-05T02:20:48.443Z,13.43
2023-03-05T02:23:19.070Z,9.35
2023-03-05T02:25:48.093Z,9.68
2023-03-05T02:28:32.831Z,12.32
2023-03-05T02:31:04.158Z,12.27
2023-03-05T02:33:33.016Z,10.88
2023-03-05T02:36:02.041Z,12.25
2023-03-05T02:38:28.720Z,13.18
2023-03-05T02:40:55.297Z,11.18
2023-03-05T02:43:21.905Z,10.75
2023-03-05T02:45:51.568Z,8.82
2023-03-05T02:48:18.136Z,10.30
2023-03-05T02:50:46.128Z,11.05
2023-03-05T02:53:15.416Z,11.40
2023-03-05T02:55:42.186Z,14.23
2023-03-05T02:58:08.816Z,13.52
2023-03-05T03:00:35.403Z,12.05
2023-03-05T03:03:02.084Z,12.88
2023-03-05T03:05:28.722Z,10.70
2023-03-05T03:07:55.406Z,11.05
2023-03-05T03:10:24.226Z,18.23
2023-03-05T03:12:50.839Z,11.55
2023-03-05T03:15:18.732Z,12.60
2023-03-05T03:17:48.305Z,10.07
2023-03-05T03:20:19.674Z,11.77
2023-03-05T03:22:47.027Z,16.58
2023-03-05T03:25:15.827Z,11.15
2023-03-05T03:27:42.402Z,10.35
2023-03-05T03:30:09.852Z,8.88
2023-03-05T03:32:36.468Z,9.88
2023-03-05T03:35:03.688Z,9.70
2023-03-05T03:37:30.344Z,10.80
2023-03-05T03:39:59.248Z,9.80
2023-03-05T03:42:28.071Z,13.35
2023-03-05T03:44:54.678Z,10.35
2023-03-05T03:47:21.221Z,12.30
2023-03-05T03:49:47.852Z,13.23
2023-03-05T03:52:17.401Z,9.20
2023-03-05T03:54:44.015Z,11.50
2023-03-05T03:57:15.767Z,9.90
2023-03-05T03:59:46.105Z,8.48
2023-03-05T04:02:15.559Z,11.48
2023-03-05T04:07:13.551Z,10.23
2023-03-05T04:09:43.110Z,12.35
2023-03-05T04:12:17.613Z,12.38
2023-03-05T04:14:51.618Z,10.27
2023-03-05T04:17:27.413Z,10.63
2023-03-05T04:19:53.990Z,9.27
2023-03-05T04:22:20.579Z,10.30
2023-03-05T04:24:47.210Z,12.70
2023-03-05T04:27:13.800Z,12.23
2023-03-05T04:29:40.316Z,11.55
2023-03-05T04:32:11.639Z,14.00
2023-03-05T04:34:38.285Z,9.88
2023-03-05T04:37:05.240Z,9.70
2023-03-05T04:39:34.053Z,11.25
2023-03-05T04:42:00.647Z,11.23
2023-03-05T04:44:27.289Z,13.77
2023-03-05T04:46:54.292Z,10.70
2023-03-05T04:49:21.034Z,11.50
2023-03-05T04:51:47.767Z,12.45
2023-03-05T04:54:16.670Z,8.88
2023-03-05T04:56:43.294Z,8.75
2023-03-05T04:59:10.069Z,9.43
2023-03-05T05:01:39.371Z,9.85
2023-03-05T05:06:35.055Z,11.73
2023-03-05T05:09:01.789Z,12.23
2023-03-05T05:11:30.796Z,9.15
2023-03-05T05:13:57.365Z,11.48
2023-03-05T05:16:24.345Z,11.23
2023-03-05T05:18:51.029Z,10.07
2023-03-05T05:21:20.858Z,11.35
2023-03-05T05:23:47.633Z,11.43
2023-03-05T05:26:19.100Z,11.43
2023-03-05T05:28:49.175Z,10.13
2023-03-05T05:31:17.223Z,11.77
2023-03-05T05:33:49.410Z,12.27
2023-03-05T05:36:22.381Z,12.30
2023-03-05T05:38:49.476Z,11.25
2023-03-05T05:41:20.815Z,12.45
2023-03-05T05:43:50.388Z,13.48
2023-03-05T05:46:20.048Z,15.10
2023-03-05T05:48:47.228Z,14.60
2023-03-05T05:51:20.894Z,14.75
2023-03-05T05:53:50.439Z,12.57
2023-03-05T05:56:19.368Z,12.10
2023-03-05T05:58:49.776Z,13.48
2023-03-05T06:01:17.525Z,9.45
2023-03-05T06:03:44.541Z,12.07
2023-03-05T06:06:12.867Z,11.98
2023-03-05T06:08:39.915Z,12.57
2023-03-05T06:11:07.596Z,14.07
2023-03-05T06:13:34.748Z,13.10
2023-03-05T06:16:09.787Z,13.75
2023-03-05T06:18:36.381Z,14.18
2023-03-05T06:21:11.175Z,11.52
2023-03-05T06:23:38.313Z,13.93
2023-03-05T06:26:09.269Z,11.23
2023-03-05T06:28:39.161Z,16.40
2023-03-05T06:31:11.483Z,14.73
2023-03-05T06:33:38.723Z,11.40
2023-03-05T06:36:13.995Z,16.67
2023-03-05T06:38:41.194Z,13.77
2023-03-05T06:41:12.909Z,11.98
2023-03-05T06:43:42.130Z,13.02
2023-03-05T06:46:19.054Z,11.88
2023-03-05T06:48:47.198Z,14.13
2023-03-05T06:51:25.480Z,14.23
2023-03-05T06:53:55.725Z,15.25
2023-03-05T06:56:25.063Z,17.35
2023-03-05T07:01:24.152Z,14.15
2023-03-05T07:03:55.506Z,13.23
2023-03-05T07:06:23.059Z,11.23
2023-03-05T07:08:49.699Z,16.42
2023-03-05T07:11:19.402Z,13.98
2023-03-05T07:13:49.435Z,13.93
2023-03-05T07:16:22.501Z,13.55
2023-03-05T07:18:52.379Z,12.45
2023-03-05T07:21:22.049Z,11.27
2023-03-05T07:23:49.556Z,11.52
2023-03-05T07:26:18.706Z,10.13
2023-03-05T07:28:48.597Z,12.10
2023-03-05T07:31:20.823Z,12.88
2023-03-05T07:33:50.880Z,11.98
2023-03-05T07:36:18.400Z,12.75
2023-03-05T07:38:50.133Z,14.55
2023-03-05T07:41:23.518Z,13.60
2023-03-05T07:43:53.021Z,13.57
2023-03-05T07:46:22.608Z,13.10
2023-03-05T07:48:49.479Z,11.77
2023-03-05T07:51:19.954Z,12.68
2023-03-05T07:53:51.755Z,12.48
2023-03-05T07:56:29.940Z,11.77
2023-03-05T07:58:58.950Z,14.98
2023-03-05T08:01:25.964Z,11.63
2023-03-05T08:03:55.279Z,10.23
2023-03-05T08:08:51.030Z,12.68
2023-03-05T08:11:18.042Z,14.32
2023-03-05T08:13:45.213Z,9.40
2023-03-05T08:16:17.300Z,11.18
2023-03-05T08:18:44.489Z,11.68
2023-03-05T08:21:21.928Z,12.68
2023-03-05T08:23:51.012Z,11.73
2023-03-05T08:26:23.516Z,11.02
2023-03-05T08:28:52.858Z,9.82
2023-03-05T08:33:52.992Z,10.82
2023-03-05T08:36:24.848Z,10.00
2023-03-05T08:38:53.998Z,12.77
2023-03-05T08:41:20.636Z,11.82
2023-03-05T08:43:47.653Z,15.48
2023-03-05T08:46:25.706Z,11.57
2023-03-05T08:48:57.588Z,11.68
2023-03-05T08:51:27.825Z,12.32
2023-03-05T08:53:58.142Z,11.32
2023-03-05T08:56:26.325Z,13.63
2023-03-05T08:58:53.109Z,14.48
2023-03-05T09:01:19.932Z,11.50
2023-03-05T09:03:47.254Z,12.85
2023-03-05T09:06:16.616Z,13.25
2023-03-05T09:11:15.844Z,11.95
2023-03-05T09:13:42.808Z,11.98
2023-03-05T09:16:13.819Z,13.63
2023-03-05T09:18:43.163Z,9.32
2023-03-05T09:21:16.865Z,12.23
2023-03-05T09:23:47.272Z,11.82
2023-03-05T09:26:19.420Z,12.20
2023-03-05T09:28:48.900Z,15.07
2023-03-05T09:31:21.027Z,11.73
2023-03-05T09:33:49.555Z,12.15
2023-03-05T09:36:21.493Z,14.77
2023-03-05T09:38:48.563Z,14.80
2023-03-05T09:41:53.249Z,11.48
2023-03-05T09:44:47.193Z,11.27
2023-03-05T09:50:01.607Z,13.93
2023-03-05T09:52:41.565Z,12.63
2023-03-05T09:55:25.430Z,12.93
2023-03-05T09:57:56.764Z,12.02
2023-03-05T10:00:51.040Z,13.95
2023-03-05T10:03:40.521Z,14.48
2023-03-05T10:06:22.409Z,12.38
2023-03-05T10:08:55.489Z,13.55
2023-03-05T10:11:31.772Z,11.55
2023-03-05T10:14:03.376Z,14.57
2023-03-05T10:16:45.243Z,14.32
2023-03-05T10:19:33.384Z,13.13
2023-03-05T10:22:15.386Z,14.20
2023-03-05T10:25:23.392Z,13.90
2023-03-05T10:27:54.244Z,13.35
2023-03-05T10:30:23.449Z,11.63
2023-03-05T10:33:08.672Z,13.38
2023-03-05T10:35:35.492Z,11.40
2023-03-05T10:38:46.348Z,13.80
2023-03-05T10:41:49.354Z,12.23
2023-03-05T10:44:47.686Z,11.63
2023-03-05T10:47:32.946Z,12.32
2023-03-05T10:50:00.101Z,11.65
2023-03-05T10:52:37.615Z,11.10
2023-03-05T10:55:22.492Z,11.10
2023-03-05T10:57:49.684Z,12.18
2023-03-05T11:00:25.095Z,12.88
2023-03-05T11:05:40.729Z,11.30
2023-03-05T11:08:36.854Z,10.88
2023-03-05T11:11:11.222Z,13.45
2023-03-05T11:13:56.549Z,10.35
2023-03-05T11:16:26.690Z,10.02
2023-03-05T11:19:22.425Z,10.20
2023-03-05T11:22:11.016Z,10.07
2023-03-05T11:24:41.845Z,11.57
2023-03-05T11:27:32.811Z,12.60
2023-03-05T11:30:07.717Z,11.07
2023-03-05T11:32:37.188Z,11.25
2023-03-05T11:35:29.995Z,12.15
2023-03-05T11:38:19.256Z,11.23
2023-03-05T11:40:46.798Z,9.02
2023-03-05T11:43:22.421Z,9.38
2023-03-05T11:45:54.771Z,8.95
2023-03-05T11:48:35.991Z,9.52
2023-03-05T11:51:08.992Z,10.75
2023-03-05T11:53:38.819Z,11.80
2023-03-05T11:56:42.786Z,8.35
2023-03-05T11:59:35.801Z,10.35
2023-03-05T12:02:04.158Z,11.25
2023-03-05T12:04:35.649Z,10.18
2023-03-05T12:07:05.834Z,9.40
2023-03-05T12:09:49.550Z,9.50
2023-03-05T12:13:03.878Z,9.65
2023-03-05T12:15:42.121Z,11.25
2023-03-05T12:18:21.048Z,11.15
2023-03-05T12:21:22.892Z,9.60
2023-03-05T12:24:03.570Z,8.60
2023-03-05T12:27:04.570Z,8.10
2023-03-05T12:29:50.533Z,8.45
2023-03-05T12:32:25.670Z,9.02
2023-03-05T12:35:16.680Z,8.18
2023-03-05T12:37:43.218Z,7.65
2023-03-05T12:40:13.126Z,7.82
2023-03-05T12:42:44.333Z,7.43
2023-03-05T12:45:15.872Z,9.63
2023-03-05T12:47:47.182Z,8.18
2023-03-05T12:50:29.102Z,6.97
2023-03-05T12:53:14.766Z,6.60
2023-03-05T12:55:47.787Z,7.90
2023-03-05T12:58:26.986Z,8.13
2023-03-05T13:01:04.046Z,8.68
2023-03-05T13:03:40.642Z,8.73
2023-03-05T13:06:09.698Z,9.43
2023-03-05T13:08:37.790Z,8.27
2023-03-05T13:11:18.962Z,12.25
2023-03-05T13:13:51.505Z,7.55
2023-03-05T13:16:29.162Z,6.65
2023-03-05T13:19:01.345Z,9.40
2023-03-05T13:21:30.859Z,8.07
2023-03-05T13:23:59.674Z,9.48
2023-03-05T13:26:40.803Z,8.77
2023-03-05T13:29:10.358Z,7.47
2023-03-05T13:31:43.449Z,7.80
2023-03-05T13:34:25.379Z,6.90
2023-03-05T13:37:00.152Z,7.25
2023-03-05T13:39:44.156Z,7.57
2023-03-05T13:42:18.580Z,7.88
2023-03-05T13:45:26.492Z,8.38
2023-03-05T13:47:57.294Z,7.60
2023-03-05T13:50:25.996Z,8.73
2023-03-05T13:53:00.283Z,8.00
2023-03-05T13:55:29.251Z,8.85
2023-03-05T13:57:56.111Z,9.50
2023-03-05T14:00:44.123Z,8.18
2023-03-05T14:13:49.805Z,9.57
2023-03-05T14:16:26.076Z,9.07
2023-03-05T14:18:58.177Z,8.80
2023-03-05T14:21:42.225Z,8.85
2023-03-05T14:24:23.580Z,9.02
2023-03-05T14:27:14.104Z,8.82
2023-03-05T14:29:46.415Z,8.40
2023-03-05T14:32:31.198Z,8.00
2023-03-05T14:35:00.014Z,9.15
2023-03-05T14:37:29.014Z,11.50
2023-03-05T14:40:02.665Z,9.05
2023-03-05T14:42:38.636Z,10.82
2023-03-05T14:45:18.345Z,7.95
2023-03-05T14:47:45.959Z,9.00
2023-03-05T14:50:20.988Z,12.25
2023-03-05T14:52:50.097Z,10.43
2023-03-05T14:55:21.764Z,9.27
2023-03-05T14:57:51.726Z,9.30
2023-03-05T15:00:26.288Z,10.85
2023-03-05T15:02:55.462Z,7.60
2023-03-05T15:07:52.081Z,7.03
2023-03-05T15:10:26.015Z,7.22
2023-03-05T15:12:53.728Z,8.95
2023-03-05T15:15:22.126Z,8.80
2023-03-05T15:17:52.293Z,15.07
2023-03-05T15:20:23.030Z,9.10
2023-03-05T15:22:53.155Z,10.20
2023-03-05T15:25:22.135Z,10.70
2023-03-05T15:27:51.414Z,8.88
2023-03-05T15:33:11.892Z,8.05
2023-03-05T15:35:38.711Z,7.82
2023-03-05T15:38:08.105Z,11.05
2023-03-05T15:40:37.518Z,8.38
2023-03-05T15:43:06.743Z,9.05
2023-03-05T15:45:36.381Z,7.47
2023-03-05T15:48:05.223Z,10.07
2023-03-05T15:50:34.307Z,7.00
2023-03-05T15:53:00.884Z,6.53
2023-03-05T15:55:27.626Z,9.25
2023-03-05T15:57:54.578Z,7.75
2023-03-05T16:00:29.567Z,8.32
2023-03-05T16:02:56.317Z,8.02
2023-03-05T16:05:23.696Z,7.40
2023-03-05T16:07:56.555Z,7.18
2023-03-05T16:10:31.628Z,6.78
2023-03-05T16:13:04.901Z,5.47
2023-03-05T16:15:33.415Z,6.47
2023-03-05T16:18:04.566Z,7.15
2023-03-05T16:20:33.458Z,9.10
2023-03-05T16:23:05.408Z,7.63
2023-03-05T16:25:32.423Z,8.10
2023-03-05T16:28:01.376Z,8.23
2023-03-05T16:30:33.388Z,8.10
2023-03-05T16:33:00.075Z,9.43
2023-03-05T16:35:26.711Z,7.43
2023-03-05T16:37:53.522Z,7.57
2023-03-05T16:40:20.395Z,11.88
2023-03-05T16:42:47.360Z,6.43
2023-03-05T16:45:14.059Z,6.32
2023-03-05T16:47:41.354Z,7.10
2023-03-05T16:50:09.988Z,5.07
2023-03-05T16:52:36.636Z,5.93
2023-03-05T16:55:07.366Z,7.43
2023-03-05T16:57:33.978Z,5.30
2023-03-05T17:00:04.373Z,5.80
2023-03-05T17:02:33.272Z,5.15
2023-03-05T17:05:00.052Z,6.03
2023-03-05T17:07:29.285Z,4.15
2023-03-05T17:09:55.949Z,8.02
2023-03-05T17:12:25.517Z,4.57
2023-03-05T17:14:52.200Z,7.38
2023-03-05T17:17:21.859Z,4.50
2023-03-05T17:19:50.800Z,5.22
2023-03-05T17:22:19.784Z,5.25
2023-03-05T17:24:47.476Z,7.50
2023-03-05T17:27:14.530Z,6.63
2023-03-05T17:29:41.314Z,6.22
2023-03-05T17:32:08.067Z,7.93
2023-03-05T17:34:36.905Z,7.65
2023-03-05T17:37:06.983Z,5.40
2023-03-05T17:39:33.997Z,6.57
2023-03-05T17:42:01.059Z,7.45
2023-03-05T17:44:30.652Z,6.30
2023-03-05T17:46:57.373Z,7.13
2023-03-05T17:49:23.963Z,7.68
2023-03-05T17:51:52.722Z,8.07
2023-03-05T17:54:19.544Z,7.20
2023-03-05T17:56:48.460Z,8.82
2023-03-05T17:59:17.358Z,6.97
2023-03-05T18:01:46.360Z,9.15
2023-03-05T18:04:38.552Z,10.85
2023-03-05T18:10:55.143Z,7.25
2023-03-05T18:13:27.592Z,7.60
2023-03-05T18:23:13.571Z,6.95
2023-03-05T18:25:44.308Z,6.20
2023-03-05T18:28:13.307Z,7.05
2023-03-05T18:30:42.121Z,7.85
2023-03-05T18:37:00.928Z,7.00
2023-03-05T18:39:33.534Z,7.32
2023-03-05T18:42:00.349Z,7.30
2023-03-05T18:44:29.557Z,10.15
2023-03-05T18:46:56.234Z,7.20
2023-03-05T18:49:22.903Z,7.50
2023-03-05T18:51:51.808Z,7.63
2023-03-05T18:54:18.393Z,7.07
2023-03-05T18:56:50.856Z,8.68
2023-03-05T18:59:22.529Z,7.45
2023-03-05T19:01:51.362Z,8.18
2023-03-05T19:04:31.683Z,7.15
2023-03-05T19:06:58.696Z,8.75
2023-03-05T19:10:07.557Z,9.32
2023-03-05T19:13:29.937Z,8.48
2023-03-05T19:16:20.323Z,8.80
2023-03-05T19:19:24.563Z,6.90
2023-03-05T19:22:00.840Z,5.82
2023-03-05T19:24:30.069Z,6.78
2023-03-05T19:27:01.275Z,7.88
2023-03-05T19:29:38.206Z,8.60
2023-03-05T19:32:05.683Z,7.15
2023-03-05T19:34:33.196Z,7.07
2023-03-05T19:37:09.478Z,8.40
2023-03-05T19:39:36.185Z,6.32
2023-03-05T19:45:43.858Z,6.38
2023-03-05T19:48:13.010Z,6.60
2023-03-05T19:50:40.509Z,5.82
2023-03-05T19:53:07.071Z,7.75
2023-03-05T19:55:33.751Z,8.63
2023-03-05T19:58:00.508Z,8.25
2023-03-05T20:01:06.853Z,9.50
2023-03-05T20:07:20.084Z,6.90
2023-03-05T20:09:51.325Z,7.75
2023-03-05T20:12:17.984Z,10.18
2023-03-05T20:14:47.404Z,7.82
2023-03-05T20:17:14.835Z,9.40
2023-03-05T20:19:41.475Z,7.95
2023-03-05T20:22:08.172Z,9.77
2023-03-05T20:24:37.689Z,10.73
2023-03-05T20:27:07.227Z,10.13
2023-03-05T20:29:36.321Z,8.40
2023-03-05T20:32:05.099Z,8.18
2023-03-05T20:34:31.831Z,7.32
2023-03-05T20:36:58.670Z,11.32
2023-03-05T20:39:32.690Z,11.88
2023-03-05T20:42:01.835Z,7.43
2023-03-05T20:44:28.464Z,8.57
2023-03-05T20:47:36.158Z,7.82
2023-03-05T20:50:03.644Z,9.73
2023-03-05T20:52:30.959Z,10.20
2023-03-05T20:54:58.643Z,8.82
2023-03-05T20:57:25.220Z,8.20
2023-03-05T20:59:51.843Z,10.07
2023-03-05T21:02:18.718Z,10.13
2023-03-05T21:04:45.294Z,11.05
2023-03-05T21:07:12.005Z,11.10
2023-03-05T21:09:43.516Z,9.82
2023-03-05T21:12:10.386Z,10.52
2023-03-05T21:14:40.852Z,11.23
2023-03-05T21:17:10.830Z,11.70
2023-03-05T21:19:40.257Z,9.63
2023-03-05T21:22:09.122Z,9.85
2023-03-05T21:25:18.612Z,11.15
2023-03-05T21:27:47.534Z,10.48
2023-03-05T21:34:01.037Z,12.00
2023-03-05T21:36:31.434Z,10.52
2023-03-05T21:41:28.060Z,11.25
2023-03-05T21:43:58.178Z,12.50
2023-03-05T21:46:27.567Z,11.52
2023-03-05T21:48:56.984Z,11.98
2023-03-05T21:52:09.483Z,10.77
2023-03-05T21:57:11.116Z,12.98
2023-03-05T22:02:15.830Z,13.10
2023-03-05T22:04:42.649Z,10.85
2023-03-05T22:07:09.569Z,12.48
2023-03-05T22:09:38.566Z,10.57
2023-03-05T22:13:12.784Z,9.95
2023-03-05T22:15:52.969Z,11.80
2023-03-05T22:18:28.118Z,11.65
2023-03-05T22:20:58.125Z,9.52
2023-03-05T22:23:30.776Z,9.13
2023-03-05T22:26:05.208Z,8.73
2023-03-05T22:28:35.534Z,9.35
2023-03-05T22:31:04.866Z,9.82
2023-03-05T22:36:02.845Z,10.80
2023-03-05T22:38:29.669Z,8.55
2023-03-05T22:40:58.635Z,11.60
2023-03-05T22:43:25.514Z,10.00
2023-03-05T22:45:52.233Z,9.40
2023-03-05T22:48:18.791Z,10.43
2023-03-05T22:51:00.253Z,12.48
2023-03-05T22:53:26.907Z,9.98
2023-03-05T22:55:54.312Z,11.77
2023-03-05T22:58:23.252Z,9.23
2023-03-05T23:00:50.038Z,8.73
2023-03-05T23:03:19.021Z,8.65
2023-03-05T23:05:48.077Z,9.18
2023-03-05T23:08:17.198Z,9.68
2023-03-05T23:10:43.795Z,9.63
2023-03-05T23:13:12.651Z,9.45
2023-03-05T23:15:39.567Z,8.30
2023-03-05T23:18:09.016Z,8.25
2023-03-05T23:20:48.092Z,10.18
2023-03-05T23:23:16.897Z,8.52
2023-03-05T23:25:43.601Z,10.63
2023-03-05T23:28:12.435Z,10.95
2023-03-05T23:30:39.555Z,10.80
2023-03-05T23:33:23.834Z,8.68
2023-03-05T23:36:01.518Z,8.77
2023-03-05T23:38:29.752Z,8.73
2023-03-05T23:41:03.739Z,9.38
2023-03-05T23:43:32.910Z,11.75
2023-03-05T23:46:01.605Z,10.10
2023-03-05T23:48:32.491Z,7.75
2023-03-05T23:50:59.342Z,9.60
2023-03-05T23:53:29.029Z,6.43
2023-03-05T23:55:56.447Z,10.57
2023-03-05T23:58:27.911Z,7.70
